Time;durP1;ratioP1;P1;durP2;ratioP2;P2;SDS_P1;SDS_P2;PMS_P1;PMS_P2;Temp;Humidity;BMP_temperature;BMP_pressure;BME280_temperature;BME280_humidity;BME280_pressure;Samples;Min_cycle;Max_cycle;Signal;HPM_P1;HPM_P2
2021/12/02 00:00:58;;;;;;;;;9.75;6.00;;;;;7.90;67.74;99556.22;5078372;27;45540;-61
2021/12/02 00:03:24;;;;;;;;;8.50;6.00;;;;;7.89;67.91;99549.31;5096483;27;45490;-62
2021/12/02 00:05:50;;;;;;;;;10.25;6.25;;;;;7.88;67.82;99543.25;5096201;27;45765;-62
2021/12/02 00:08:15;;;;;;;;;8.00;5.00;;;;;7.87;67.86;99547.69;5078232;27;45464;-62
2021/12/02 00:10:41;;;;;;;;;6.25;5.25;;;;;7.85;67.73;99541.75;5096594;27;45191;-62
2021/12/02 00:13:07;;;;;;;;;5.75;5.50;;;;;7.83;67.98;99548.94;5080136;27;45803;-61
2021/12/02 00:15:40;;;;;;;;;7.25;5.50;;;;;7.81;68.14;99548.25;5099904;27;45267;-61
2021/12/02 00:21:03;;;;;;;;;7.25;6.00;;;;;7.77;68.17;99556.50;5070542;27;45349;-62
2021/12/02 00:23:34;;;;;;;;;7.75;5.25;;;;;7.75;68.22;99554.03;5082350;27;46518;-61
2021/12/02 00:26:02;;;;;;;;;10.00;6.00;;;;;7.75;68.14;99567.13;5081791;27;45794;-62
2021/12/02 00:28:29;;;;;;;;;9.00;8.50;;;;;7.73;68.42;99574.28;5100034;27;45229;-61
2021/12/02 00:30:58;;;;;;;;;9.50;7.00;;;;;7.73;68.42;99575.09;5099981;27;45312;-61
2021/12/02 00:33:25;;;;;;;;;12.75;8.00;;;;;7.72;68.35;99575.25;5099751;27;46524;-62
2021/12/02 00:35:50;;;;;;;;;7.25;7.00;;;;;7.72;68.49;99583.09;5099674;27;45241;-61
2021/12/02 00:38:16;;;;;;;;;8.25;6.00;;;;;7.71;68.65;99591.91;5099831;27;45647;-62
2021/12/02 00:40:41;;;;;;;;;6.75;6.00;;;;;7.71;68.55;99584.03;5064667;27;45252;-61
2021/12/02 00:43:07;;;;;;;;;6.00;6.00;;;;;7.70;68.60;99585.00;5064565;27;45550;-61
2021/12/02 00:45:32;;;;;;;;;8.75;6.00;;;;;7.70;68.72;99583.22;5064337;27;45487;-62
2021/12/02 00:47:59;;;;;;;;;11.00;6.50;;;;;7.69;68.84;99584.16;5064654;27;45409;-61
2021/12/02 00:50:25;;;;;;;;;8.75;7.00;;;;;7.69;68.99;99580.75;5064651;27;45457;-62
2021/12/02 00:52:50;;;;;;;;;10.00;5.50;;;;;7.69;68.76;99583.38;5081229;27;46057;-61
2021/12/02 00:55:16;;;;;;;;;12.25;9.00;;;;;7.68;68.93;99592.97;5081180;27;45470;-62
2021/12/02 00:57:41;;;;;;;;;11.25;9.00;;;;;7.68;68.82;99589.56;5099618;27;45325;-62
2021/12/02 01:00:07;;;;;;;;;6.75;6.50;;;;;7.69;68.92;99599.06;5081216;27;45478;-61
2021/12/02 01:02:33;;;;;;;;;9.25;9.00;;;;;7.69;69.02;99602.47;5099357;27;45402;-61
2021/12/02 01:04:59;;;;;;;;;7.50;7.50;;;;;7.68;69.05;99598.22;5099363;27;45347;-61
2021/12/02 01:07:24;;;;;;;;;9.00;9.00;;;;;7.69;68.98;99604.28;5081229;27;45526;-62
2021/12/02 01:09:50;;;;;;;;;12.75;10.00;;;;;7.70;69.06;99604.13;5081210;27;45237;-62
2021/12/02 01:12:16;;;;;;;;;11.25;9.75;;;;;7.69;69.28;99599.06;5080960;27;45412;-62
2021/12/02 01:14:43;;;;;;;;;11.50;9.50;;;;;7.69;69.13;99607.69;5081032;27;45774;-62
2021/12/02 01:17:09;;;;;;;;;11.25;7.25;;;;;7.70;69.10;99603.31;5099424;27;45279;-61
2021/12/02 01:19:34;;;;;;;;;10.50;8.25;;;;;7.69;68.87;99605.09;5099278;27;45664;-61
2021/12/02 01:22:00;;;;;;;;;9.50;8.50;;;;;7.70;69.10;99611.97;5099026;27;46136;-62
2021/12/02 01:24:26;;;;;;;;;12.75;10.50;;;;;7.69;69.00;99607.69;5098151;27;45884;-61
2021/12/02 01:26:53;;;;;;;;;10.50;7.75;;;;;7.70;69.27;99613.78;5063956;27;45292;-61
2021/12/02 01:29:20;;;;;;;;;14.50;7.25;;;;;7.69;69.32;99618.16;5099231;27;45468;-62
2021/12/02 01:31:48;;;;;;;;;6.75;4.75;;;;;7.67;68.92;99614.06;5097610;27;46025;-61
2021/12/02 01:34:13;;;;;;;;;6.50;6.50;;;;;7.66;69.28;99613.25;5080974;27;45244;-61
2021/12/02 01:36:41;;;;;;;;;5.00;5.00;;;;;7.66;69.23;99615.03;5063814;27;45311;-61
2021/12/02 01:39:06;;;;;;;;;10.25;6.00;;;;;7.65;69.27;99623.81;5098922;27;45381;-61
2021/12/02 01:41:49;;;;;;;;;6.25;6.00;;;;;7.64;69.28;99622.19;5080332;27;46207;-62
2021/12/02 01:44:15;;;;;;;;;5.50;5.25;;;;;7.64;69.30;99630.03;5080525;27;45840;-62
2021/12/02 01:46:42;;;;;;;;;9.75;5.00;;;;;7.62;69.29;99634.56;5063430;27;45485;-61
2021/12/02 01:49:09;;;;;;;;;5.50;5.50;;;;;7.61;69.42;99632.91;5098993;27;45371;-61
2021/12/02 01:51:38;;;;;;;;;6.00;5.00;;;;;7.61;69.49;99635.53;5098584;27;46587;-61
2021/12/02 01:54:16;;;;;;;;;4.00;4.00;;;;;7.60;69.61;99650.41;5063605;27;46060;-62
2021/12/02 01:56:51;;;;;;;;;6.00;5.00;;;;;7.61;69.59;99651.22;5063871;27;45418;-62
2021/12/02 01:59:22;;;;;;;;;5.25;5.00;;;;;7.61;69.58;99651.22;5081899;27;45408;-61
2021/12/02 02:01:51;;;;;;;;;6.00;4.00;;;;;7.59;69.59;99648.75;5080419;27;45411;-62
2021/12/02 02:04:17;;;;;;;;;5.25;4.00;;;;;7.58;69.70;99658.38;5098547;27;45341;-62
2021/12/02 02:06:56;;;;;;;;;7.00;4.25;;;;;7.58;69.79;99663.59;5063221;27;45347;-62
2021/12/02 02:09:25;;;;;;;;;4.25;4.25;;;;;7.58;69.64;99666.22;5098660;27;45589;-62
2021/12/02 02:11:51;;;;;;;;;6.50;4.00;;;;;7.57;69.73;99666.34;5063618;27;45386;-62
2021/12/02 02:14:17;;;;;;;;;6.00;5.00;;;;;7.58;69.83;99668.00;5098403;27;45316;-61
2021/12/02 02:16:42;;;;;;;;;5.00;5.00;;;;;7.57;69.64;99667.16;5080409;27;45276;-61
2021/12/02 02:19:11;;;;;;;;;5.50;5.25;;;;;7.59;69.72;99677.50;5098532;27;45323;-62
2021/12/02 02:21:37;;;;;;;;;8.25;5.00;;;;;7.59;69.70;99685.34;5098090;27;45963;-62
2021/12/02 02:24:03;;;;;;;;;5.00;4.00;;;;;7.58;69.84;99684.50;5080138;27;45859;-61
2021/12/02 02:26:34;;;;;;;;;7.75;4.75;;;;;7.59;69.57;99682.72;5098415;27;45387;-62
2021/12/02 02:28:59;;;;;;;;;4.75;4.50;;;;;7.61;69.55;99690.44;5098316;27;45245;-62
2021/12/02 02:31:25;;;;;;;;;7.00;5.50;;;;;7.61;69.61;99687.81;5079798;27;45431;-62
2021/12/02 02:33:52;;;;;;;;;4.75;4.75;;;;;7.61;69.51;99693.03;5079794;27;45363;-62
2021/12/02 02:36:20;;;;;;;;;7.25;6.00;;;;;7.61;69.64;99687.81;5097088;27;45229;-62
2021/12/02 02:38:54;;;;;;;;;6.00;6.00;;;;;7.60;69.67;99691.38;5063029;27;45492;-62
2021/12/02 02:41:22;;;;;;;;;4.50;4.00;;;;;7.59;69.57;99701.03;5079429;27;47259;-61
2021/12/02 02:43:48;;;;;;;;;3.75;3.75;;;;;7.58;69.60;99705.41;5079988;27;45848;-61
2021/12/02 02:46:21;;;;;;;;;5.00;5.00;;;;;7.57;69.42;99705.56;5097959;27;45380;-62
2021/12/02 02:48:47;;;;;;;;;5.00;5.00;;;;;7.54;69.26;99708.47;5096727;27;45573;-61
2021/12/02 02:51:12;;;;;;;;;5.25;3.00;;;;;7.53;69.03;99712.84;5097761;27;46703;-62
2021/12/02 02:53:38;;;;;;;;;4.00;2.00;;;;;7.51;68.50;99708.72;5097761;27;45419;-62
2021/12/02 02:56:10;;;;;;;;;3.25;2.50;;;;;7.49;68.45;99716.69;5062889;27;45449;-62
2021/12/02 03:06:37;;;;;;;;;1.25;1.00;;;;;7.33;67.90;99713.81;5081239;27;45344;-61
2021/12/02 03:09:06;;;;;;;;;3.00;2.50;;;;;7.33;68.09;99716.41;5063598;27;45245;-62
2021/12/02 03:11:41;;;;;;;;;2.75;1.00;;;;;7.33;67.76;99716.41;5096676;27;45537;-62
2021/12/02 03:14:11;;;;;;;;;3.25;2.50;;;;;7.31;68.42;99718.34;5080581;27;45806;-62
2021/12/02 03:16:44;;;;;;;;;2.25;1.00;;;;;7.30;68.01;99722.72;5097542;27;45289;-61
2021/12/02 03:19:30;;;;;;;;;2.75;1.50;;;;;7.28;68.30;99725.50;5079140;27;45232;-61
2021/12/02 03:21:56;;;;;;;;;2.25;1.75;;;;;7.28;68.40;99732.47;5096931;27;46461;-62
2021/12/02 03:24:22;;;;;;;;;1.25;1.25;;;;;7.29;68.40;99736.75;5097335;27;45358;-62
2021/12/02 03:26:48;;;;;;;;;3.50;3.50;;;;;7.29;68.58;99736.75;5079112;27;45272;-61
2021/12/02 03:29:13;;;;;;;;;3.25;2.00;;;;;7.28;68.40;99735.09;5097211;27;45207;-62
2021/12/02 03:31:38;;;;;;;;;2.00;1.75;;;;;7.28;68.27;99743.78;5097048;27;46227;-61
2021/12/02 03:34:05;;;;;;;;;1.50;1.50;;;;;7.27;67.76;99749.13;5097048;27;45373;-62
2021/12/02 03:36:30;;;;;;;;;2.50;2.50;;;;;7.26;67.88;99742.25;5079308;27;45304;-62
2021/12/02 03:38:56;;;;;;;;;2.00;2.00;;;;;7.25;67.70;99746.66;5097249;27;45329;-62
2021/12/02 03:41:21;;;;;;;;;2.00;2.00;;;;;7.25;67.50;99745.81;5095998;27;67837;-61
2021/12/02 03:43:47;;;;;;;;;1.50;1.00;;;;;7.23;67.03;99737.28;5094914;27;68866;-62
2021/12/02 03:46:16;;;;;;;;;2.75;1.00;;;;;7.22;67.07;99746.94;5096284;27;45367;-62
2021/12/02 03:48:42;;;;;;;;;1.25;1.25;;;;;7.22;67.19;99746.09;5084866;27;45633;-61
2021/12/02 03:51:08;;;;;;;;;3.00;1.00;;;;;7.22;66.65;99751.31;5103702;27;45459;-61
2021/12/02 03:53:33;;;;;;;;;0.50;0.00;;;;;7.20;66.59;99742.78;5103810;27;45490;-62
2021/12/02 03:56:00;;;;;;;;;1.00;1.00;;;;;7.19;66.22;99762.03;5103829;27;45381;-61
2021/12/02 03:58:26;;;;;;;;;1.00;1.00;;;;;7.15;65.95;99760.66;5103648;27;45434;-61
2021/12/02 04:00:51;;;;;;;;;1.00;1.00;;;;;7.12;65.81;99757.34;5102719;27;66770;-62
2021/12/02 04:03:16;;;;;;;;;1.50;0.00;;;;;7.10;65.71;99771.50;5103609;27;45378;-61
2021/12/02 04:05:42;;;;;;;;;0.75;0.75;;;;;7.08;65.43;99779.47;5102898;27;62451;-62
2021/12/02 04:08:11;;;;;;;;;0.75;0.00;;;;;7.05;65.07;99779.75;5103265;27;50657;-62
2021/12/02 04:10:36;;;;;;;;;3.50;1.00;;;;;7.01;65.01;99780.97;5103485;27;46105;-62
2021/12/02 04:15:33;;;;;;;;;1.00;0.00;;;;;6.95;64.94;99771.84;5103817;27;45281;-61
2021/12/02 04:17:59;;;;;;;;;2.00;1.00;;;;;6.92;65.27;99774.72;5085237;27;45366;-61
2021/12/02 04:20:24;;;;;;;;;2.00;1.00;;;;;6.91;65.32;99773.06;5102600;27;67866;-62
2021/12/02 04:22:50;;;;;;;;;1.00;0.75;;;;;6.92;65.26;99766.06;5084895;27;54688;-61
2021/12/02 04:25:16;;;;;;;;;2.75;1.00;;;;;6.91;65.42;99769.63;5085296;27;45463;-61
2021/12/02 04:27:42;;;;;;;;;2.75;1.00;;;;;6.90;65.74;99770.59;5085271;27;45253;-61
2021/12/02 04:30:09;;;;;;;;;2.75;0.00;;;;;6.90;65.76;99773.22;5103226;27;46629;-61
2021/12/02 04:32:35;;;;;;;;;1.50;1.00;;;;;6.89;65.74;99782.81;5085059;27;45398;-62
2021/12/02 04:35:00;;;;;;;;;0.75;0.25;;;;;6.86;65.78;99793.56;5103363;27;45303;-61
2021/12/02 04:37:25;;;;;;;;;1.50;1.00;;;;;6.86;65.38;99796.16;5084251;27;65873;-62
2021/12/02 04:39:51;;;;;;;;;0.50;0.50;;;;;6.85;65.39;99801.50;5102932;27;45447;-62
2021/12/02 04:42:16;;;;;;;;;3.50;0.25;;;;;6.83;64.24;99809.47;5083796;27;67497;-61
2021/12/02 04:44:41;;;;;;;;;1.25;1.25;;;;;6.78;63.98;99812.47;5102845;27;51461;-62
2021/12/02 04:47:07;;;;;;;;;1.00;0.75;;;;;6.74;63.50;99811.06;5102764;27;51897;-62
2021/12/02 04:49:32;;;;;;;;;3.00;1.00;;;;;6.70;63.39;99819.28;5102423;27;62311;-62
2021/12/02 04:51:59;;;;;;;;;2.00;0.75;;;;;6.64;63.20;99818.84;5102881;27;45361;-61
2021/12/02 04:54:24;;;;;;;;;0.00;0.00;;;;;6.57;63.07;99824.72;5083906;27;65879;-62
2021/12/02 04:56:50;;;;;;;;;1.75;1.00;;;;;6.51;62.86;99836.47;5102592;27;59466;-62
2021/12/02 04:59:15;;;;;;;;;1.00;1.00;;;;;6.45;62.71;99836.97;5079997;27;67185;-61
2021/12/02 05:01:41;;;;;;;;;2.75;1.00;;;;;6.37;63.07;99837.63;5098749;27;63125;-61
2021/12/02 05:04:06;;;;;;;;;1.75;1.00;;;;;6.32;62.81;99840.63;5081208;27;47154;-61
2021/12/02 05:06:31;;;;;;;;;2.00;1.75;;;;;6.26;63.07;99835.06;5098695;27;60273;-62
2021/12/02 05:08:58;;;;;;;;;0.00;0.00;;;;;6.18;63.24;99841.72;5080463;27;67658;-61
2021/12/02 05:11:23;;;;;;;;;3.75;1.00;;;;;6.13;63.00;99837.84;5081122;27;45768;-62
2021/12/02 05:13:49;;;;;;;;;1.50;1.00;;;;;6.08;63.16;99848.66;5099595;27;45447;-61
2021/12/02 05:16:14;;;;;;;;;2.00;1.00;;;;;6.02;62.92;99849.16;5098954;27;55430;-61
2021/12/02 05:18:40;;;;;;;;;1.00;1.00;;;;;5.99;63.35;99858.00;5098745;27;60628;-61
2021/12/02 05:21:05;;;;;;;;;2.00;2.00;;;;;5.93;63.50;99861.94;5099242;27;45711;-62
2021/12/02 05:23:31;;;;;;;;;1.75;1.75;;;;;5.91;62.88;99858.63;5098817;27;55665;-61
2021/12/02 05:25:56;;;;;;;;;1.50;1.00;;;;;5.89;62.99;99862.28;5080923;27;45550;-61
2021/12/02 05:28:22;;;;;;;;;3.00;1.25;;;;;5.86;63.07;99868.59;5098326;27;64586;-61
2021/12/02 05:30:47;;;;;;;;;4.00;3.00;;;;;5.85;63.10;99863.47;5099015;27;45376;-61
2021/12/02 05:33:13;;;;;;;;;2.00;1.00;;;;;5.81;63.17;99865.53;5099164;27;45380;-61
2021/12/02 05:35:38;;;;;;;;;2.00;1.00;;;;;5.81;63.20;99869.91;5063782;27;45579;-61
2021/12/02 05:38:04;;;;;;;;;6.00;1.25;;;;;5.79;63.34;99868.25;5098759;27;45475;-61
2021/12/02 05:40:29;;;;;;;;;2.00;2.00;;;;;5.78;63.52;99874.44;5080785;27;45351;-62
2021/12/02 05:42:54;;;;;;;;;1.75;0.00;;;;;5.76;63.51;99878.09;5098725;27;45229;-61
2021/12/02 05:45:20;;;;;;;;;1.75;1.75;;;;;5.75;63.62;99877.28;5098962;27;45241;-61
2021/12/02 05:47:45;;;;;;;;;4.00;3.00;;;;;5.74;63.63;99873.00;5098313;27;54001;-61
2021/12/02 05:50:11;;;;;;;;;7.75;5.25;;;;;5.76;63.71;99878.09;5097937;27;64332;-61
2021/12/02 05:52:36;;;;;;;;;5.50;4.00;;;;;5.75;63.80;99872.06;5098306;27;53933;-61
2021/12/02 05:55:01;;;;;;;;;4.25;1.75;;;;;5.75;63.94;99879.88;5079705;27;68121;-61
2021/12/02 05:57:27;;;;;;;;;7.50;5.25;;;;;5.75;63.84;99874.66;5063362;27;47381;-61
2021/12/02 05:59:52;;;;;;;;;2.25;2.00;;;;;5.76;63.96;99878.94;5098643;27;45222;-62
2021/12/02 06:02:18;;;;;;;;;1.00;1.00;;;;;5.77;63.91;99875.38;5098600;27;45234;-61
2021/12/02 06:04:45;;;;;;;;;2.00;2.00;;;;;5.78;64.03;99879.63;5080341;27;45716;-61
2021/12/02 06:07:10;;;;;;;;;1.75;1.00;;;;;5.77;63.73;99880.59;5079997;27;47285;-61
2021/12/02 06:09:36;;;;;;;;;6.00;4.00;;;;;5.76;63.47;99881.53;5097425;27;63255;-61
2021/12/02 06:12:01;;;;;;;;;6.75;4.00;;;;;5.76;63.68;99884.16;5079555;27;56295;-61
2021/12/02 06:14:27;;;;;;;;;3.00;1.00;;;;;5.76;63.82;99885.91;5080117;27;45403;-61
2021/12/02 06:16:52;;;;;;;;;3.00;1.00;;;;;5.75;63.88;99886.84;5078846;27;47064;-61
2021/12/02 06:19:17;;;;;;;;;1.00;1.00;;;;;5.71;63.70;99888.88;5096756;27;52319;-61
2021/12/02 06:21:43;;;;;;;;;3.00;1.50;;;;;5.69;63.73;99893.41;5097511;27;61050;-61
2021/12/02 06:24:08;;;;;;;;;0.00;0.00;;;;;5.68;64.01;99888.28;5097572;27;60774;-61
2021/12/02 06:26:34;;;;;;;;;1.75;1.75;;;;;5.64;64.15;99890.31;5097941;27;46273;-61
2021/12/02 06:29:02;;;;;;;;;2.00;2.00;;;;;5.64;64.04;99890.31;5079693;27;45291;-61
2021/12/02 06:31:27;;;;;;;;;2.50;1.25;;;;;5.63;64.26;99886.06;5063455;27;45252;-61
2021/12/02 06:33:53;;;;;;;;;2.00;2.00;;;;;5.60;64.29;99881.06;5097829;27;45170;-61
2021/12/02 06:36:18;;;;;;;;;3.75;2.00;;;;;5.58;64.29;99885.56;5097557;27;46111;-61
2021/12/02 06:38:43;;;;;;;;;1.00;1.00;;;;;5.52;64.08;99886.91;5097125;27;57966;-61
2021/12/02 06:41:09;;;;;;;;;2.00;2.00;;;;;5.55;64.36;99891.03;5072904;28;55276;-61
2021/12/02 06:43:34;;;;;;;;;2.50;2.00;;;;;5.53;64.13;99913.78;5077260;28;45411;-61
2021/12/02 06:45:59;;;;;;;;;3.75;2.00;;;;;5.51;64.44;99919.13;5076285;28;64523;-61
2021/12/02 06:48:25;;;;;;;;;3.00;3.00;;;;;5.49;64.69;99919.22;5059319;28;45252;-61
2021/12/02 06:50:51;;;;;;;;;6.50;2.50;;;;;5.47;64.38;99915.09;5042375;28;45383;-61
2021/12/02 06:53:17;;;;;;;;;7.00;2.00;;;;;5.47;64.65;99928.13;5076248;28;45413;-61
2021/12/02 06:55:43;;;;;;;;;3.75;2.00;;;;;5.45;64.60;99938.63;5058988;28;46641;-61
2021/12/02 06:58:08;;;;;;;;;5.25;3.00;;;;;5.41;64.60;99942.41;5058945;28;45411;-61
2021/12/02 07:00:34;;;;;;;;;4.00;2.00;;;;;5.39;64.61;99943.50;5077377;28;45461;-61
2021/12/02 07:03:01;;;;;;;;;2.00;2.00;;;;;5.38;64.78;99949.66;5076894;28;45398;-61
2021/12/02 07:05:27;;;;;;;;;5.00;2.67;;;;;5.35;64.82;99943.72;5076787;28;45431;-60
2021/12/02 07:07:53;;;;;;;;;2.75;2.75;;;;;5.34;64.89;99949.88;5059104;28;45317;-61
2021/12/02 07:10:22;;;;;;;;;5.00;2.00;;;;;5.34;64.79;99956.84;5076924;28;45312;-61
2021/12/02 07:12:50;;;;;;;;;3.25;2.00;;;;;5.32;64.98;99958.75;5076797;28;45528;-61
2021/12/02 07:15:17;;;;;;;;;4.00;2.00;;;;;5.27;64.72;99961.72;5058920;28;46495;-61
2021/12/02 07:17:45;;;;;;;;;4.00;1.75;;;;;5.23;64.73;99960.28;5076926;28;45780;-61
2021/12/02 07:20:11;;;;;;;;;2.25;2.00;;;;;5.19;64.39;99964.91;5076786;28;45488;-61
2021/12/02 07:22:36;;;;;;;;;3.00;2.50;;;;;5.14;64.38;99974.84;5057876;28;45492;-60
2021/12/02 07:25:03;;;;;;;;;6.25;3.75;;;;;5.13;64.47;99983.59;5058319;28;46465;-61
2021/12/02 07:27:28;;;;;;;;;2.00;2.00;;;;;5.09;64.35;99978.72;5058473;28;45980;-61
2021/12/02 07:29:54;;;;;;;;;6.25;3.00;;;;;5.04;64.38;99973.84;5076798;28;45368;-61
2021/12/02 07:32:19;;;;;;;;;4.00;2.00;;;;;5.01;64.09;99972.31;5057546;28;65680;-61
2021/12/02 07:34:45;;;;;;;;;7.25;3.75;;;;;5.00;64.11;99975.88;5058258;28;46232;-61
2021/12/02 07:37:14;;;;;;;;;7.00;3.00;;;;;4.99;64.03;99979.41;5076463;28;45439;-60
2021/12/02 07:39:40;;;;;;;;;3.75;3.50;;;;;4.97;63.83;99983.06;5076650;28;45437;-61
2021/12/02 07:42:05;;;;;;;;;4.50;2.00;;;;;4.94;63.98;99981.53;5089214;27;60852;-60
2021/12/02 07:44:33;;;;;;;;;3.75;2.00;;;;;4.93;63.64;99979.03;5078625;27;45474;-61
2021/12/02 07:46:58;;;;;;;;;1.00;1.00;;;;;4.92;63.75;99970.41;5078589;27;45351;-61
2021/12/02 07:49:24;;;;;;;;;3.25;2.00;;;;;4.91;63.88;99979.16;5095992;27;64684;-61
2021/12/02 07:51:49;;;;;;;;;4.00;2.00;;;;;4.90;63.93;99983.50;5096581;27;53230;-61
2021/12/02 07:54:16;;;;;;;;;2.25;2.00;;;;;4.89;63.83;99983.63;5096535;27;45515;-61
2021/12/02 07:56:41;;;;;;;;;3.00;1.75;;;;;4.89;63.97;99991.44;5096676;27;45311;-61
2021/12/02 07:59:09;;;;;;;;;5.75;3.00;;;;;4.90;63.96;100004.34;5096347;27;55224;-61
2021/12/02 08:01:35;;;;;;;;;4.25;2.25;;;;;4.89;63.85;100009.66;5062181;27;45237;-61
2021/12/02 08:04:00;;;;;;;;;5.75;3.25;;;;;4.90;64.02;100009.53;5096284;27;45401;-61
2021/12/02 08:06:26;;;;;;;;;9.75;4.00;;;;;4.91;64.04;100005.19;5096005;27;45330;-61
2021/12/02 08:08:52;;;;;;;;;2.75;2.50;;;;;4.93;64.33;100005.06;5096494;27;45460;-61
2021/12/02 08:11:17;;;;;;;;;6.00;4.00;;;;;4.94;64.51;100010.16;5077298;27;67051;-61
2021/12/02 08:13:43;;;;;;;;;4.00;2.25;;;;;4.98;64.57;100010.75;5095760;27;64934;-60
2021/12/02 08:16:08;;;;;;;;;2.00;1.50;;;;;5.02;64.34;100015.66;5078122;27;45432;-61
2021/12/02 08:18:34;;;;;;;;;8.00;3.00;;;;;5.07;64.34;100017.91;5061227;27;45751;-61
2021/12/02 08:20:59;;;;;;;;;2.75;2.75;;;;;5.11;64.33;100018.50;5078222;27;45470;-61
2021/12/02 08:23:25;;;;;;;;;5.00;3.00;;;;;5.14;64.12;100021.72;5077867;27;46266;-61
2021/12/02 08:25:51;;;;;;;;;4.75;3.00;;;;;5.20;64.16;100029.06;5096069;27;45246;-61
2021/12/02 08:28:16;;;;;;;;;3.50;2.25;;;;;5.23;63.99;100027.19;5078150;27;45313;-61
2021/12/02 08:30:42;;;;;;;;;6.25;2.75;;;;;5.25;63.96;100033.13;5095298;27;68511;-61
2021/12/02 08:33:08;;;;;;;;;3.75;2.25;;;;;5.29;64.02;100032.75;5078380;27;47912;-61
2021/12/02 08:35:34;;;;;;;;;7.00;2.75;;;;;5.33;63.95;100026.38;5081541;27;45796;-61
2021/12/02 08:38:08;;;;;;;;;4.00;2.50;;;;;5.36;64.00;100030.53;5081438;27;45742;-61
2021/12/02 08:40:36;;;;;;;;;3.00;2.00;;;;;5.39;63.80;100040.72;5084099;27;45201;-61
2021/12/02 08:43:03;;;;;;;;;3.25;2.00;;;;;5.41;63.87;100040.63;5046889;28;46412;-61
2021/12/02 08:45:28;;;;;;;;;3.25;3.00;;;;;5.44;63.61;100038.59;5055475;28;45465;-61
2021/12/02 08:47:54;;;;;;;;;2.75;1.75;;;;;5.46;63.83;100039.31;5057297;28;45348;-61
2021/12/02 08:50:20;;;;;;;;;8.75;8.00;;;;;5.51;63.60;100041.59;5060274;28;45520;-61
2021/12/02 08:52:46;;;;;;;;;3.00;3.00;;;;;5.55;63.54;100047.38;5055724;28;45852;-61
2021/12/02 08:55:11;;;;;;;;;3.75;2.00;;;;;5.57;63.36;100045.50;5039930;28;45606;-61
2021/12/02 08:57:37;;;;;;;;;7.50;4.00;;;;;5.60;63.26;100045.25;5055551;28;45430;-61
2021/12/02 09:00:07;;;;;;;;;3.75;1.75;;;;;5.62;63.50;100049.41;5043430;28;51474;-61
2021/12/02 09:02:32;;;;;;;;;2.75;2.00;;;;;5.65;63.32;100048.34;5038166;28;46679;-61
2021/12/02 09:04:57;;;;;;;;;4.00;2.75;;;;;5.69;63.27;100054.16;5056568;28;45512;-61
2021/12/02 09:07:23;;;;;;;;;5.25;4.00;;;;;5.73;62.94;100061.66;5057067;28;45442;-61
2021/12/02 09:09:49;;;;;;;;;4.75;3.00;;;;;5.76;62.81;100060.56;5055966;28;45465;-61
2021/12/02 09:12:14;;;;;;;;;4.00;2.50;;;;;5.82;62.75;100070.53;5039163;28;57221;-60
2021/12/02 09:14:40;;;;;;;;;5.00;2.00;;;;;5.86;62.60;100073.72;5049412;28;45474;-60
2021/12/02 09:17:05;;;;;;;;;5.25;2.25;;;;;5.90;62.58;100089.03;5058688;28;45576;-61
2021/12/02 09:19:31;;;;;;;;;5.00;2.00;;;;;5.93;62.46;100083.59;5058953;28;45143;-61
2021/12/02 09:21:56;;;;;;;;;2.25;2.25;;;;;5.98;62.63;100079.81;5062547;28;45358;-61
2021/12/02 09:24:22;;;;;;;;;5.50;3.00;;;;;6.03;62.48;100075.91;5057572;28;45553;-61
2021/12/02 09:26:51;;;;;;;;;3.75;1.00;;;;;6.16;62.43;100077.56;5039611;28;45293;-61
2021/12/02 09:29:17;;;;;;;;;2.00;2.00;;;;;6.33;62.18;100097.13;5056819;28;45627;-61
2021/12/02 09:31:42;;;;;;;;;3.00;2.00;;;;;6.53;61.81;100098.19;5059417;28;45641;-61
2021/12/02 09:34:08;;;;;;;;;4.25;3.50;;;;;6.68;61.41;100109.19;5048745;28;45741;-61
2021/12/02 09:36:33;;;;;;;;;4.25;2.00;;;;;6.78;61.05;100106.69;5057419;28;61213;-62
2021/12/02 09:38:58;;;;;;;;;9.25;7.50;;;;;6.83;60.97;100102.75;5061533;28;54615;-61
2021/12/02 09:41:24;;;;;;;;;8.50;5.00;;;;;6.88;60.40;100109.41;5071379;27;45510;-61
2021/12/02 09:43:49;;;;;;;;;5.00;5.00;;;;;6.88;60.17;100120.69;5066239;27;66526;-61
2021/12/02 09:46:15;;;;;;;;;15.75;10.00;;;;;6.86;60.08;100117.38;5076030;27;45573;-61
2021/12/02 09:48:40;;;;;;;;;4.50;3.50;;;;;6.83;60.11;100115.00;5078108;27;45537;-61
2021/12/02 09:51:15;;;;;;;;;12.50;9.50;;;;;6.83;60.08;100113.22;5077070;27;72904;-61
2021/12/02 09:53:57;;;;;;;;;9.00;7.00;;;;;6.83;60.31;100117.63;5078895;27;45483;-61
2021/12/02 09:56:27;;;;;;;;;4.00;4.00;;;;;6.81;59.99;100114.28;5079629;27;45327;-61
2021/12/02 09:58:56;;;;;;;;;4.25;3.75;;;;;6.83;60.12;100112.38;5062399;27;45531;-61
2021/12/02 10:01:35;;;;;;;;;4.00;3.00;;;;;6.85;60.13;100122.69;5079299;27;46358;-61
2021/12/02 10:04:02;;;;;;;;;5.00;2.75;;;;;6.88;60.10;100122.47;5078412;27;45484;-61
2021/12/02 10:06:30;;;;;;;;;8.00;6.00;;;;;6.92;60.28;100127.31;5079115;27;45358;-61
2021/12/02 10:09:10;;;;;;;;;4.50;2.50;;;;;6.98;59.94;100126.81;5080476;27;45509;-61
2021/12/02 10:11:47;;;;;;;;;9.00;3.75;;;;;7.04;59.84;100127.28;5081006;27;46421;-61
2021/12/02 10:14:17;;;;;;;;;7.00;3.00;;;;;7.11;59.72;100134.53;5079137;27;45993;-61
2021/12/02 10:16:45;;;;;;;;;5.75;3.00;;;;;7.19;59.26;100123.44;5077923;27;45507;-61
2021/12/02 10:19:13;;;;;;;;;4.25;2.25;;;;;7.26;59.37;100129.81;5078354;27;45668;-61
2021/12/02 10:21:42;;;;;;;;;4.00;2.75;;;;;7.34;58.64;100123.16;5080003;27;46200;-61
2021/12/02 10:24:12;;;;;;;;;4.00;2.00;;;;;7.38;58.35;100122.75;5077601;27;46088;-61
2021/12/02 10:26:53;;;;;;;;;5.00;2.00;;;;;7.39;58.08;100123.59;5057689;27;45450;-61
2021/12/02 10:29:21;;;;;;;;;4.75;2.75;;;;;7.36;58.09;100129.91;5081583;27;45453;-61
2021/12/02 10:31:48;;;;;;;;;4.00;2.50;;;;;7.37;57.88;100125.53;5078169;27;45451;-61
2021/12/02 10:34:16;;;;;;;;;4.00;2.25;;;;;7.36;57.82;100119.44;5075038;27;45967;-61
2021/12/02 10:36:44;;;;;;;;;6.25;3.00;;;;;7.39;57.91;100123.59;5074082;27;45526;-61
2021/12/02 10:39:09;;;;;;;;;3.00;1.75;;;;;7.37;57.07;100115.88;5077604;27;45604;-61
2021/12/02 10:41:34;;;;;;;;;4.00;3.00;;;;;7.36;57.23;100114.22;5068688;27;47431;-61
2021/12/02 10:44:26;;;;;;;;;3.00;1.75;;;;;7.41;57.15;100111.25;5057948;27;45526;-62
2021/12/02 10:47:01;;;;;;;;;4.00;2.50;;;;;7.45;57.53;100107.41;5073978;27;45454;-61
2021/12/02 10:49:28;;;;;;;;;6.50;2.00;;;;;7.53;57.34;100110.22;5074344;27;45605;-61
2021/12/02 10:51:55;;;;;;;;;3.50;1.25;;;;;7.58;56.70;100100.19;5074708;27;45454;-63
2021/12/02 10:54:25;;;;;;;;;2.00;2.00;;;;;7.64;55.78;100101.50;5060300;27;45295;-61
2021/12/02 10:56:53;;;;;;;;;1.00;1.00;;;;;7.68;54.47;100108.09;5069208;27;45574;-61
2021/12/02 10:59:44;;;;;;;;;4.25;1.00;;;;;7.69;53.07;100111.56;5057108;27;45466;-61
2021/12/02 11:02:24;;;;;;;;;1.25;1.00;;;;;7.66;51.73;100103.97;5078102;27;46138;-61
2021/12/02 11:04:56;;;;;;;;;1.00;1.00;;;;;7.61;51.75;100104.38;5076458;27;46029;-60
2021/12/02 11:07:26;;;;;;;;;0.25;0.00;;;;;7.60;51.51;100107.09;5075062;27;46339;-61
2021/12/02 11:09:52;;;;;;;;;1.50;1.00;;;;;7.60;51.32;100100.09;5078002;27;45562;-61
2021/12/02 11:12:20;;;;;;;;;0.00;0.00;;;;;7.61;50.95;100099.13;5080571;27;45442;-61
2021/12/02 11:14:55;;;;;;;;;1.75;1.00;;;;;7.64;51.36;100095.41;5055346;27;45358;-61
2021/12/02 11:17:21;;;;;;;;;0.00;0.00;;;;;7.70;51.18;100094.91;5081618;27;45540;-61
2021/12/02 11:19:48;;;;;;;;;0.50;0.50;;;;;7.76;51.04;100086.56;5071806;27;45561;-61
2021/12/02 11:22:16;;;;;;;;;2.50;1.00;;;;;7.81;50.73;100092.22;5090814;27;46736;-61
2021/12/02 11:24:42;;;;;;;;;1.00;0.00;;;;;7.90;50.27;100080.16;5086900;27;45368;-61
2021/12/02 11:27:10;;;;;;;;;3.50;1.00;;;;;7.94;50.98;100085.97;5074175;27;45448;-61
2021/12/02 11:30:09;;;;;;;;;4.75;2.00;;;;;7.96;51.24;100086.63;5078183;27;45666;-61
2021/12/02 11:32:37;;;;;;;;;10.75;8.50;;;;;7.95;51.42;100092.88;5060122;27;47170;-61
2021/12/02 11:35:05;;;;;;;;;4.00;4.00;;;;;7.89;51.74;100109.06;5074009;27;45406;-61
2021/12/02 11:37:32;;;;;;;;;5.75;3.50;;;;;7.78;51.77;100102.09;5077650;27;45388;-61
2021/12/02 11:39:58;;;;;;;;;8.00;5.00;;;;;7.70;52.75;100097.53;5057286;27;45519;-61
2021/12/02 11:42:25;;;;;;;;;8.50;5.50;;;;;7.64;52.41;100093.66;5052865;28;45693;-60
2021/12/02 11:44:50;;;;;;;;;5.50;3.00;;;;;7.54;52.58;100085.72;5053477;28;45425;-61
2021/12/02 11:47:16;;;;;;;;;5.25;2.00;;;;;7.43;52.50;100088.38;5044928;28;65283;-61
2021/12/02 11:49:41;;;;;;;;;4.50;2.75;;;;;7.35;52.63;100086.41;5053133;28;45514;-61
2021/12/02 11:52:08;;;;;;;;;2.00;2.00;;;;;7.30;52.29;100082.53;5053057;28;46364;-61